createdAt,value
2023-06-10T00:04:08.523Z,24.30
2023-06-10T00:09:12.798Z,23.00
2023-06-10T00:14:16.902Z,21.70
2023-06-10T00:19:20.841Z,19.90
2023-06-10T00:24:25.242Z,18.50
2023-06-10T00:29:29.222Z,18.20
2023-06-10T00:34:33.745Z,20.90
2023-06-10T00:39:38.843Z,20.10
2023-06-10T00:44:43.049Z,21.20
2023-06-10T00:49:49.243Z,22.10
2023-06-10T00:54:53.224Z,22.60
2023-06-10T00:59:57.439Z,21.50
2023-06-10T01:05:05.599Z,20.90
2023-06-10T01:10:32.087Z,18.80
2023-06-10T01:15:37.137Z,19.00
2023-06-10T01:20:44.539Z,19.00
2023-06-10T01:26:02.140Z,20.70
2023-06-10T01:31:23.960Z,18.20
2023-06-10T01:36:29.383Z,17.60
2023-06-10T01:41:33.728Z,19.80
2023-06-10T01:46:37.956Z,20.60
2023-06-10T01:51:42.537Z,22.30
2023-06-10T01:56:46.483Z,23.80
2023-06-10T02:01:50.256Z,22.90
2023-06-10T02:06:55.097Z,24.30
2023-06-10T02:11:59.525Z,25.10
2023-06-10T02:17:03.967Z,25.70
2023-06-10T02:22:07.715Z,24.30
2023-06-10T02:27:13.552Z,23.60
2023-06-10T02:32:21.206Z,22.80
2023-06-10T02:37:26.478Z,21.30
2023-06-10T02:42:31.568Z,21.10
2023-06-10T02:47:38.952Z,20.10
2023-06-10T02:52:43.784Z,18.80
2023-06-10T02:57:48.703Z,18.50
2023-06-10T03:02:58.973Z,17.60
2023-06-10T03:08:07.166Z,17.30
2023-06-10T03:13:12.955Z,15.50
2023-06-10T03:18:17.706Z,17.40
2023-06-10T03:23:22.442Z,15.90
2023-06-10T03:28:27.446Z,16.70
2023-06-10T03:33:32.865Z,15.70
2023-06-10T03:38:38.264Z,16.20
2023-06-10T03:43:44.152Z,14.90
2023-06-10T03:48:50.461Z,16.00
2023-06-10T03:53:54.743Z,14.90
2023-06-10T03:59:02.256Z,14.90
2023-06-10T04:04:08.730Z,15.50
2023-06-10T04:09:13.347Z,14.60
2023-06-10T04:14:18.559Z,13.80
2023-06-10T04:19:23.503Z,14.50
2023-06-10T04:24:29.564Z,14.30
2023-06-10T04:29:39.966Z,14.00
2023-06-10T04:34:46.519Z,14.10
2023-06-10T04:39:52.357Z,14.60
2023-06-10T04:44:59.198Z,15.20
2023-06-10T04:50:05.942Z,13.90
2023-06-10T04:55:12.372Z,14.10
2023-06-10T05:00:19.888Z,14.00
2023-06-10T05:05:25.110Z,13.60
2023-06-10T05:10:33.150Z,15.50
2023-06-10T05:15:39.104Z,16.40
2023-06-10T05:20:51.564Z,15.10
2023-06-10T05:25:57.406Z,15.50
2023-06-10T05:31:02.250Z,14.80
2023-06-10T05:36:07.548Z,14.20
2023-06-10T05:41:12.728Z,14.10
2023-06-10T05:46:16.777Z,14.60
2023-06-10T05:51:23.540Z,14.70
2023-06-10T05:56:27.992Z,12.40
2023-06-10T06:01:33.147Z,13.90
2023-06-10T06:06:40.171Z,13.00
2023-06-10T06:11:45.648Z,13.30
2023-06-10T06:16:49.534Z,12.50
2023-06-10T06:21:54.228Z,12.70
2023-06-10T06:27:01.137Z,12.60
2023-06-10T06:32:11.451Z,12.30
2023-06-10T06:37:27.918Z,13.40
2023-06-10T06:42:42.158Z,12.00
2023-06-10T06:47:55.238Z,11.80
2023-06-10T06:52:59.239Z,11.30
2023-06-10T06:58:05.649Z,11.00
2023-06-10T07:03:09.786Z,10.70
2023-06-10T07:08:13.977Z,10.30
2023-06-10T07:13:19.463Z,10.80
2023-06-10T07:18:23.291Z,10.30
2023-06-10T07:23:28.107Z,10.50
2023-06-10T07:28:31.962Z,10.20
2023-06-10T07:33:36.508Z,10.30
2023-06-10T07:38:42.997Z,11.00
2023-06-10T07:43:47.517Z,11.40
2023-06-10T07:48:51.580Z,10.50
2023-06-10T07:53:55.383Z,10.00
2023-06-10T07:58:59.243Z,8.90
2023-06-10T08:04:03.734Z,8.90
2023-06-10T08:09:08.651Z,8.10
2023-06-10T08:14:12.743Z,7.20
2023-06-10T08:19:16.782Z,7.60
2023-06-10T08:24:22.371Z,7.30
2023-06-10T08:29:27.145Z,7.40
2023-06-10T08:34:34.821Z,7.30
2023-06-10T08:39:38.633Z,7.60
2023-06-10T08:44:44.075Z,7.40
2023-06-10T08:49:48.862Z,7.20
2023-06-10T08:55:05.075Z,7.50
2023-06-10T09:00:23.103Z,6.60
2023-06-10T09:05:30.873Z,8.40
2023-06-10T09:10:37.333Z,9.40
2023-06-10T09:15:44.598Z,10.00
2023-06-10T09:20:49.754Z,9.20
2023-06-10T09:25:59.670Z,10.00
2023-06-10T09:31:08.874Z,9.80
2023-06-10T09:36:25.132Z,9.30
2023-06-10T09:41:37.057Z,10.60
2023-06-10T09:46:42.280Z,10.40
2023-06-10T09:51:54.071Z,10.10
2023-06-10T09:57:01.421Z,10.00
2023-06-10T10:02:09.593Z,9.00
2023-06-10T10:07:16.715Z,8.20
2023-06-10T10:12:21.078Z,7.60
2023-06-10T10:17:28.151Z,8.80
2023-06-10T10:22:39.871Z,7.40
2023-06-10T10:27:51.015Z,6.60
2023-06-10T10:33:10.310Z,6.30
2023-06-10T10:38:15.810Z,6.70
2023-06-10T10:43:20.049Z,6.70
2023-06-10T10:48:23.994Z,6.30
2023-06-10T10:53:28.070Z,5.80
2023-06-10T10:58:33.879Z,5.80
2023-06-10T11:03:50.922Z,5.80
2023-06-10T11:08:56.177Z,5.50
2023-06-10T11:14:05.960Z,5.40
2023-06-10T11:19:34.052Z,5.90
2023-06-10T11:24:39.274Z,5.50
2023-06-10T11:30:12.269Z,5.80
2023-06-10T11:35:17.139Z,5.00
2023-06-10T11:40:24.014Z,5.70
2023-06-10T11:45:27.999Z,5.20
2023-06-10T11:50:33.155Z,4.60
2023-06-10T11:55:44.726Z,5.10
2023-06-10T12:00:51.246Z,4.50
2023-06-10T12:06:24.365Z,4.30
2023-06-10T12:11:29.549Z,4.50
2023-06-10T12:16:33.559Z,5.30
2023-06-10T12:21:38.634Z,5.50
2023-06-10T12:26:47.476Z,4.90
2023-06-10T12:32:07.465Z,5.00
2023-06-10T12:37:16.451Z,5.00
2023-06-10T12:42:25.269Z,5.50
2023-06-10T12:47:37.292Z,4.60
2023-06-10T12:52:42.561Z,4.70
2023-06-10T12:57:51.757Z,4.50
2023-06-10T13:02:55.960Z,4.60
2023-06-10T13:08:01.063Z,4.40
2023-06-10T13:13:11.437Z,4.00
2023-06-10T13:18:16.500Z,4.40
2023-06-10T13:23:24.168Z,3.90
2023-06-10T13:28:28.890Z,4.10
2023-06-10T13:33:32.882Z,3.80
2023-06-10T13:38:38.980Z,3.60
2023-06-10T13:43:43.495Z,3.80
2023-06-10T13:48:47.314Z,4.10
2023-06-10T13:53:53.324Z,4.30
2023-06-10T13:58:57.787Z,4.00
2023-06-10T14:04:02.338Z,3.70
2023-06-10T14:09:07.170Z,3.60
2023-06-10T14:14:12.389Z,3.70
2023-06-10T14:19:18.312Z,4.60
2023-06-10T14:24:24.257Z,3.70
2023-06-10T14:29:32.720Z,3.90
2023-06-10T14:34:36.875Z,3.60
2023-06-10T14:39:40.888Z,3.80
2023-06-10T14:44:44.976Z,4.10
2023-06-10T14:49:50.449Z,4.20
2023-06-10T14:54:54.713Z,4.40
2023-06-10T14:59:58.641Z,4.20
2023-06-10T15:05:02.542Z,3.80
2023-06-10T15:10:07.469Z,4.00
2023-06-10T15:15:12.244Z,3.60
2023-06-10T15:20:16.986Z,4.00
2023-06-10T15:25:30.706Z,4.00
2023-06-10T15:30:38.785Z,4.20
2023-06-10T15:35:44.902Z,3.90
2023-06-10T15:40:48.959Z,3.60
2023-06-10T15:45:52.915Z,3.60
2023-06-10T15:50:57.035Z,3.30
2023-06-10T15:56:00.931Z,3.70
2023-06-10T16:01:04.897Z,4.00
2023-06-10T16:06:08.950Z,4.00
2023-06-10T16:11:13.855Z,3.40
2023-06-10T16:16:20.847Z,3.30
2023-06-10T16:21:27.302Z,3.60
2023-06-10T16:26:31.782Z,3.80
2023-06-10T16:31:36.236Z,3.80
2023-06-10T16:36:40.904Z,4.20
2023-06-10T16:41:45.085Z,4.00
2023-06-10T16:46:49.114Z,4.60
2023-06-10T16:51:53.225Z,4.20
2023-06-10T16:56:57.242Z,4.20
2023-06-10T17:02:03.495Z,4.50
2023-06-10T17:07:07.948Z,4.90
2023-06-10T17:12:12.559Z,4.60
2023-06-10T17:17:18.907Z,5.00
2023-06-10T17:22:24.902Z,5.00
2023-06-10T17:27:28.906Z,4.30
2023-06-10T17:32:34.963Z,4.40
2023-06-10T17:37:39.679Z,4.40
2023-06-10T17:42:43.578Z,4.50
2023-06-10T17:47:50.051Z,4.40
2023-06-10T17:52:56.029Z,3.80
2023-06-10T17:58:00.078Z,3.70
2023-06-10T18:03:06.727Z,4.90
2023-06-10T18:08:11.614Z,4.10
2023-06-10T18:13:16.623Z,4.10
2023-06-10T18:18:20.613Z,4.30
2023-06-10T18:23:25.294Z,4.00
2023-06-10T18:28:31.373Z,4.90
2023-06-10T18:33:38.211Z,4.10
2023-06-10T18:38:42.135Z,4.70
2023-06-10T18:43:46.454Z,6.00
2023-06-10T18:48:51.756Z,5.30
2023-06-10T18:53:55.780Z,4.90
2023-06-10T18:59:03.101Z,4.10
2023-06-10T19:04:07.676Z,4.80
2023-06-10T19:09:15.052Z,4.70
2023-06-10T19:14:18.957Z,4.60
2023-06-10T19:19:28.657Z,4.90
2023-06-10T19:24:37.635Z,5.20
2023-06-10T19:29:44.927Z,4.30
2023-06-10T19:34:54.307Z,5.10
2023-06-10T19:40:00.993Z,4.90
2023-06-10T19:45:08.025Z,4.40
2023-06-10T19:50:13.148Z,4.20
2023-06-10T19:55:18.497Z,4.10
2023-06-10T20:00:23.600Z,5.20
2023-06-10T20:05:27.541Z,6.50
2023-06-10T20:10:31.490Z,6.10
2023-06-10T20:15:35.508Z,7.00
2023-06-10T20:20:39.480Z,9.70
2023-06-10T20:25:43.568Z,14.30
2023-06-10T20:30:48.284Z,14.80
2023-06-10T20:35:52.470Z,12.30
2023-06-10T20:40:56.450Z,9.00
2023-06-10T20:46:01.434Z,8.50
2023-06-10T20:51:05.513Z,6.50
2023-06-10T20:56:09.516Z,6.50
2023-06-10T21:01:13.505Z,5.60
2023-06-10T21:06:18.153Z,6.30
2023-06-10T21:11:22.985Z,7.10
2023-06-10T21:16:28.136Z,7.90
2023-06-10T21:21:32.071Z,7.90
2023-06-10T21:26:36.625Z,7.60
2023-06-10T21:31:41.572Z,6.30
2023-06-10T21:36:45.413Z,6.40
2023-06-10T21:41:49.611Z,5.10
2023-06-10T21:46:53.645Z,5.10
2023-06-10T21:51:57.672Z,5.90
2023-06-10T21:57:01.659Z,5.50
2023-06-10T22:02:07.529Z,5.30
2023-06-10T22:07:11.643Z,5.40
2023-06-10T22:12:19.756Z,5.50
2023-06-10T22:17:23.927Z,5.30
2023-06-10T22:22:27.924Z,4.90
2023-06-10T22:27:31.908Z,4.80
2023-06-10T22:32:36.591Z,4.70
2023-06-10T22:37:41.008Z,4.80
2023-06-10T22:42:45.585Z,4.80
2023-06-10T22:47:50.532Z,4.70
2023-06-10T22:52:55.166Z,4.90
2023-06-10T22:57:59.620Z,5.10
2023-06-10T23:03:03.796Z,5.10
2023-06-10T23:08:08.080Z,4.90
2023-06-10T23:13:12.080Z,5.30
2023-06-10T23:18:15.833Z,5.20
2023-06-10T23:23:19.688Z,5.00
2023-06-10T23:28:23.713Z,5.00
2023-06-10T23:33:29.072Z,6.70
2023-06-10T23:38:33.450Z,6.20
2023-06-10T23:43:37.297Z,5.80
2023-06-10T23:48:41.690Z,5.80
2023-06-10T23:53:46.544Z,5.20
2023-06-10T23:58:51.153Z,5.10
